Seascape, California
Current Conditions -  °F | °C
As of 10:53 AM on Monday 20 Oct 2014 (Local Time) from KWVI Reporting Station
Overcast Overcast  
Wind Chill: 69°   Ceiling: 1700
Heat Index: 69°   Visibility: 10mi
Dew Point: 58°   Wind: 5mph
Humidity: 68%   Direction: 130°SE
Pressure: 29.99"   Gusts: NA
Location:  37.0137°N, 121.877°W
Report Text: KWVI 201753Z AUTO 13004KT 10SM OVC017 21/14 A2999 RMK AO2 SLP154 T02060144 10211 20144 53006
Loading
Personal Weather Stations






























Interactive Weather Map
Tropical Storm Tracking
New forecast layout! Learn more

10-Day Weather Forecast

Advertisements
Track Severe Weather on mobile